createdAt,value
2023-01-13T00:00:45.490Z,8.17
2023-01-13T00:03:11.768Z,8.14
2023-01-13T00:05:38.302Z,8.05
2023-01-13T00:08:06.221Z,8.14
2023-01-13T00:10:33.627Z,8.15
2023-01-13T00:12:59.869Z,8.15
2023-01-13T00:15:26.151Z,8.17
2023-01-13T00:17:52.458Z,8.19
2023-01-13T00:20:18.776Z,8.17
2023-01-13T00:22:45.009Z,8.17
2023-01-13T00:25:11.744Z,8.18
2023-01-13T00:27:38.153Z,8.18
2023-01-13T00:30:05.484Z,8.14
2023-01-13T00:32:31.726Z,7.90
2023-01-13T00:34:58.857Z,7.54
2023-01-13T00:37:25.356Z,7.13
2023-01-13T00:39:52.108Z,6.90
2023-01-13T00:42:37.396Z,6.72
2023-01-13T00:45:04.044Z,6.62
2023-01-13T00:47:30.378Z,6.56
2023-01-13T00:49:56.617Z,6.52
2023-01-13T00:52:23.175Z,6.48
2023-01-13T00:54:49.430Z,6.46
2023-01-13T00:57:15.689Z,6.40
2023-01-13T00:59:41.951Z,6.39
2023-01-13T01:02:08.315Z,6.37
2023-01-13T01:04:34.667Z,6.33
2023-01-13T01:07:00.891Z,6.30
2023-01-13T01:09:33.286Z,6.28
2023-01-13T01:11:59.940Z,6.29
2023-01-13T01:14:27.129Z,6.29
2023-01-13T01:16:54.206Z,6.29
2023-01-13T01:19:20.524Z,6.29
2023-01-13T01:21:46.755Z,6.30
2023-01-13T01:24:13.044Z,6.31
2023-01-13T01:26:39.335Z,6.30
2023-01-13T01:29:05.602Z,6.29
2023-01-13T01:31:32.928Z,6.23
2023-01-13T01:33:59.806Z,6.20
2023-01-13T01:36:26.797Z,6.19
2023-01-13T01:38:53.062Z,6.17
2023-01-13T01:41:20.983Z,6.09
2023-01-13T01:43:59.145Z,6.04
2023-01-13T01:46:34.622Z,5.95
2023-01-13T01:49:21.154Z,5.83
2023-01-13T01:51:55.625Z,5.77
2023-01-13T01:54:31.863Z,5.70
2023-01-13T01:56:58.392Z,5.67
2023-01-13T01:59:25.704Z,5.68
2023-01-13T02:01:52.097Z,5.68
2023-01-13T02:04:24.691Z,5.71
2023-01-13T02:06:52.131Z,5.74
2023-01-13T02:09:18.406Z,5.66
2023-01-13T02:12:03.192Z,5.63
2023-01-13T02:14:30.459Z,5.61
2023-01-13T02:17:15.205Z,5.49
2023-01-13T02:19:41.441Z,5.39
2023-01-13T02:22:19.917Z,5.33
2023-01-13T02:24:55.361Z,5.28
2023-01-13T02:27:40.632Z,5.22
2023-01-13T02:30:25.680Z,5.20
2023-01-13T02:32:54.702Z,5.13
2023-01-13T02:35:24.595Z,5.12
2023-01-13T02:37:51.546Z,5.08
2023-01-13T02:40:32.664Z,5.06
2023-01-13T02:43:24.621Z,5.00
2023-01-13T02:45:53.475Z,4.88
2023-01-13T02:48:21.827Z,4.79
2023-01-13T02:50:51.908Z,4.72
2023-01-13T02:53:21.957Z,4.68
2023-01-13T02:55:50.045Z,4.65
2023-01-13T02:58:18.607Z,4.61
2023-01-13T03:00:45.401Z,4.59
2023-01-13T03:03:11.755Z,4.58
2023-01-13T03:05:38.961Z,4.58
2023-01-13T03:08:08.229Z,4.58
2023-01-13T03:10:49.607Z,4.59
2023-01-13T03:13:45.505Z,4.58
2023-01-13T03:16:28.158Z,4.57
2023-01-13T03:19:05.431Z,4.57
2023-01-13T03:21:40.583Z,4.57
2023-01-13T03:24:12.525Z,4.58
2023-01-13T03:26:48.633Z,4.62
2023-01-13T03:29:24.750Z,4.68
2023-01-13T03:31:58.598Z,4.76
2023-01-13T03:34:30.264Z,4.81
2023-01-13T03:36:57.741Z,4.81
2023-01-13T03:39:27.984Z,4.76
2023-01-13T03:41:57.293Z,4.71
2023-01-13T03:44:32.922Z,4.69
2023-01-13T03:47:03.871Z,4.67
2023-01-13T03:49:34.610Z,4.72
2023-01-13T03:52:03.281Z,4.81
2023-01-13T03:54:31.190Z,4.86
2023-01-13T03:57:00.517Z,4.87
2023-01-13T03:59:29.254Z,4.88
2023-01-13T04:02:10.731Z,4.90
2023-01-13T04:04:40.770Z,4.93
2023-01-13T04:07:17.144Z,4.99
2023-01-13T04:09:43.413Z,5.02
2023-01-13T04:12:09.683Z,5.00
2023-01-13T04:14:36.417Z,4.94
2023-01-13T04:17:02.767Z,4.93
2023-01-13T04:19:32.875Z,4.93
2023-01-13T04:21:59.350Z,4.89
2023-01-13T04:24:25.923Z,4.86
2023-01-13T04:26:52.205Z,4.83
2023-01-13T04:29:18.533Z,4.78
2023-01-13T04:31:44.812Z,4.80
2023-01-13T04:34:12.333Z,4.79
2023-01-13T04:36:38.619Z,4.77
2023-01-13T04:39:05.028Z,4.74
2023-01-13T04:41:53.962Z,4.70
2023-01-13T04:44:20.291Z,4.67
2023-01-13T04:46:46.605Z,4.66
2023-01-13T04:49:12.874Z,4.63
2023-01-13T04:51:39.142Z,4.61
2023-01-13T04:54:05.515Z,4.58
2023-01-13T04:56:31.789Z,4.55
2023-01-13T04:58:58.060Z,4.52
2023-01-13T05:01:24.418Z,4.51
2023-01-13T05:03:50.768Z,4.54
2023-01-13T05:06:17.022Z,4.55
2023-01-13T05:08:43.298Z,4.54
2023-01-13T05:11:28.099Z,4.51
2023-01-13T05:14:12.880Z,4.50
2023-01-13T05:16:57.608Z,4.48
2023-01-13T05:19:23.887Z,4.47
2023-01-13T05:22:08.576Z,4.46
2023-01-13T05:24:53.429Z,4.48
2023-01-13T05:27:19.703Z,4.46
2023-01-13T05:29:45.997Z,4.50
2023-01-13T05:32:12.292Z,4.55
2023-01-13T05:34:38.559Z,4.60
2023-01-13T05:37:07.388Z,4.67
2023-01-13T05:39:56.301Z,4.65
2023-01-13T05:42:41.115Z,4.64
2023-01-13T05:45:07.692Z,4.60
2023-01-13T05:47:34.055Z,4.55
2023-01-13T05:50:00.366Z,4.52
2023-01-13T05:52:27.227Z,4.50
2023-01-13T05:54:53.477Z,4.46
2023-01-13T05:57:19.742Z,4.48
2023-01-13T05:59:46.024Z,4.48
2023-01-13T06:02:12.267Z,4.49
2023-01-13T06:04:38.558Z,4.50
2023-01-13T06:07:04.922Z,4.48
2023-01-13T06:09:31.800Z,4.44
2023-01-13T06:11:58.065Z,4.47
2023-01-13T06:14:24.355Z,4.48
2023-01-13T06:16:50.745Z,4.49
2023-01-13T06:19:17.502Z,4.49
2023-01-13T06:21:46.692Z,4.57
2023-01-13T06:24:12.955Z,4.58
2023-01-13T06:26:40.515Z,4.58
2023-01-13T06:29:08.285Z,4.60
2023-01-13T06:31:36.245Z,4.62
2023-01-13T06:34:05.954Z,4.65
2023-01-13T06:36:35.678Z,4.66
2023-01-13T06:39:03.547Z,4.68
2023-01-13T06:41:50.887Z,4.66
2023-01-13T06:44:17.986Z,4.60
2023-01-13T06:46:44.374Z,4.64
2023-01-13T06:49:10.670Z,4.62
2023-01-13T06:51:36.962Z,4.61
2023-01-13T06:54:03.450Z,4.59
2023-01-13T06:56:29.737Z,4.63
2023-01-13T06:58:56.199Z,4.63
2023-01-13T07:01:22.688Z,4.59
2023-01-13T07:03:49.102Z,4.57
2023-01-13T07:06:15.400Z,4.55
2023-01-13T07:08:41.670Z,4.56
2023-01-13T07:11:08.810Z,4.55
2023-01-13T07:13:53.950Z,4.59
2023-01-13T07:16:20.484Z,4.62
2023-01-13T07:18:46.782Z,4.65
2023-01-13T07:21:20.005Z,4.66
2023-01-13T07:23:47.185Z,4.67
2023-01-13T07:26:13.858Z,4.66
2023-01-13T07:28:40.497Z,4.65
2023-01-13T07:31:14.068Z,4.61
2023-01-13T07:33:40.402Z,4.60
2023-01-13T07:36:07.032Z,4.58
2023-01-13T07:38:33.880Z,4.57
2023-01-13T07:41:23.497Z,4.57
2023-01-13T07:43:50.033Z,4.61
2023-01-13T07:46:16.504Z,4.61
2023-01-13T07:48:42.908Z,4.63
2023-01-13T07:51:10.778Z,4.63
2023-01-13T07:53:37.547Z,4.60
2023-01-13T07:56:05.319Z,4.61
2023-01-13T07:58:32.727Z,4.58
2023-01-13T08:00:59.101Z,4.59
2023-01-13T08:03:26.474Z,4.60
2023-01-13T08:05:52.946Z,4.67
2023-01-13T08:08:19.360Z,4.72
2023-01-13T08:10:45.728Z,4.77
2023-01-13T08:13:19.757Z,4.84
2023-01-13T08:15:47.400Z,4.89
2023-01-13T08:18:14.002Z,4.93
2023-01-13T08:20:40.560Z,4.96
2023-01-13T08:23:07.438Z,4.99
2023-01-13T08:25:33.946Z,5.02
2023-01-13T08:28:00.384Z,5.01
2023-01-13T08:30:27.517Z,5.06
2023-01-13T08:32:54.195Z,5.05
2023-01-13T08:35:21.535Z,5.03
2023-01-13T08:37:47.904Z,5.05
2023-01-13T08:40:14.860Z,5.12
2023-01-13T08:42:41.400Z,5.14
2023-01-13T08:45:08.721Z,5.19
2023-01-13T08:47:35.015Z,5.14
2023-01-13T08:50:01.302Z,5.17
2023-01-13T08:52:28.772Z,5.22
2023-01-13T08:54:55.066Z,5.23
2023-01-13T08:57:21.498Z,5.23
2023-01-13T08:59:47.975Z,5.22
2023-01-13T09:02:15.695Z,5.28
2023-01-13T09:04:42.152Z,5.37
2023-01-13T09:07:08.688Z,5.40
2023-01-13T09:09:35.098Z,5.35
2023-01-13T09:12:19.783Z,5.38
2023-01-13T09:14:46.073Z,5.30
2023-01-13T09:17:12.365Z,5.29
2023-01-13T09:19:38.696Z,5.36
2023-01-13T09:22:05.108Z,5.35
2023-01-13T09:24:31.675Z,5.28
2023-01-13T09:26:58.006Z,5.32
2023-01-13T09:29:24.629Z,5.39
2023-01-13T09:31:50.995Z,5.40
2023-01-13T09:34:36.797Z,5.46
2023-01-13T09:37:03.896Z,5.36
2023-01-13T09:39:30.154Z,5.39
2023-01-13T09:42:17.177Z,5.31
2023-01-13T09:44:52.590Z,5.45
2023-01-13T09:47:24.647Z,5.41
2023-01-13T09:49:51.000Z,5.45
2023-01-13T09:52:19.937Z,5.43
2023-01-13T09:55:05.021Z,5.45
2023-01-13T09:57:34.236Z,5.54
2023-01-13T10:00:00.542Z,5.50
2023-01-13T10:02:42.031Z,5.41
2023-01-13T10:05:26.850Z,5.35
2023-01-13T10:07:57.200Z,5.35
2023-01-13T10:10:32.258Z,5.25
2023-01-13T10:13:17.154Z,5.18
2023-01-13T10:15:47.720Z,5.17
2023-01-13T10:18:22.435Z,5.12
2023-01-13T10:21:21.136Z,5.14
2023-01-13T10:23:47.503Z,5.13
2023-01-13T10:26:25.164Z,5.14
2023-01-13T10:28:53.125Z,5.22
2023-01-13T10:31:20.301Z,5.06
2023-01-13T10:33:46.657Z,5.09
2023-01-13T10:36:14.622Z,5.07
2023-01-13T10:38:45.498Z,5.02
2023-01-13T10:41:11.733Z,5.09
2023-01-13T10:43:37.989Z,5.10
2023-01-13T10:46:05.918Z,5.17
2023-01-13T10:48:36.910Z,5.23
2023-01-13T10:51:21.934Z,5.33
2023-01-13T10:54:01.878Z,5.28
2023-01-13T10:56:29.727Z,5.48
2023-01-13T10:59:14.998Z,5.47
2023-01-13T11:01:43.053Z,5.43
2023-01-13T11:04:35.862Z,5.44
2023-01-13T11:07:16.786Z,5.28
2023-01-13T11:09:43.094Z,5.33
2023-01-13T11:12:28.040Z,5.24
2023-01-13T11:14:54.338Z,5.19
2023-01-13T11:17:32.881Z,5.03
2023-01-13T11:20:03.444Z,5.02
2023-01-13T11:22:33.473Z,4.98
2023-01-13T11:25:01.432Z,5.06
2023-01-13T11:27:36.608Z,5.04
2023-01-13T11:30:12.268Z,4.96
2023-01-13T11:32:58.177Z,5.00
2023-01-13T11:35:24.870Z,5.11
2023-01-13T11:37:53.748Z,5.12
2023-01-13T11:40:31.058Z,5.14
2023-01-13T11:43:10.106Z,5.06
2023-01-13T11:45:40.083Z,5.03
2023-01-13T11:48:12.354Z,5.03
2023-01-13T11:50:55.007Z,5.00
2023-01-13T11:53:40.147Z,5.05
2023-01-13T11:56:06.427Z,5.11
2023-01-13T11:58:38.790Z,5.14
2023-01-13T12:01:17.373Z,5.09
2023-01-13T12:03:47.855Z,5.07
2023-01-13T12:06:19.722Z,5.06
2023-01-13T12:09:11.851Z,5.11
2023-01-13T12:12:01.325Z,5.03
2023-01-13T12:14:46.555Z,5.10
2023-01-13T12:17:22.522Z,5.05
2023-01-13T12:19:49.968Z,5.06
2023-01-13T12:22:20.327Z,5.02
2023-01-13T12:24:49.353Z,5.04
2023-01-13T12:27:19.194Z,5.00
2023-01-13T12:29:47.238Z,5.06
2023-01-13T12:32:20.928Z,5.09
2023-01-13T12:34:51.768Z,5.02
2023-01-13T12:37:21.151Z,4.97
2023-01-13T12:39:55.717Z,5.04
2023-01-13T12:42:59.455Z,5.07
2023-01-13T12:45:29.674Z,5.10
2023-01-13T12:47:56.559Z,5.11
2023-01-13T12:50:23.557Z,5.12
2023-01-13T12:52:50.681Z,5.09
2023-01-13T12:55:21.159Z,5.11
2023-01-13T12:57:58.115Z,5.06
2023-01-13T13:00:30.771Z,5.08
2023-01-13T13:03:12.480Z,5.12
2023-01-13T13:05:54.357Z,5.14
2023-01-13T13:08:22.925Z,5.20
2023-01-13T13:11:27.806Z,5.16
2023-01-13T13:13:54.197Z,5.12
2023-01-13T13:16:26.572Z,5.14
2023-01-13T13:19:13.156Z,5.14
2023-01-13T13:21:58.363Z,5.21
2023-01-13T13:24:25.405Z,5.28
2023-01-13T13:26:51.744Z,5.22
2023-01-13T13:29:35.677Z,5.25
2023-01-13T13:32:11.231Z,5.21
2023-01-13T13:34:52.471Z,5.27
2023-01-13T13:37:27.761Z,5.27
2023-01-13T13:40:13.047Z,5.26
2023-01-13T13:43:09.456Z,5.32
2023-01-13T13:45:54.259Z,5.31
2023-01-13T13:48:22.274Z,5.31
2023-01-13T13:50:58.399Z,5.28
2023-01-13T13:53:30.003Z,5.27
2023-01-13T13:55:59.429Z,5.20
2023-01-13T13:58:27.219Z,5.22
2023-01-13T14:00:54.269Z,5.21
2023-01-13T14:03:30.129Z,5.21
2023-01-13T14:06:00.930Z,5.24
2023-01-13T14:08:28.377Z,5.24
2023-01-13T14:10:54.744Z,5.22
2023-01-13T14:13:22.896Z,5.20
2023-01-13T14:16:06.051Z,5.18
2023-01-13T14:18:34.520Z,5.18
2023-01-13T14:21:00.788Z,5.17
2023-01-13T14:23:28.426Z,5.14
2023-01-13T14:25:55.034Z,5.06
2023-01-13T14:28:29.096Z,5.11
2023-01-13T14:30:56.269Z,5.06
2023-01-13T14:33:28.365Z,5.12
2023-01-13T14:36:15.997Z,5.07
2023-01-13T14:38:43.287Z,5.18
2023-01-13T14:41:11.083Z,5.20
2023-01-13T14:43:42.365Z,5.20
2023-01-13T14:46:08.826Z,5.17
2023-01-13T14:48:36.181Z,5.18
2023-01-13T14:51:05.663Z,5.08
2023-01-13T14:53:37.784Z,5.08
2023-01-13T14:56:22.716Z,5.14
2023-01-13T14:58:49.869Z,5.15
2023-01-13T15:01:48.753Z,5.11
2023-01-13T15:04:15.327Z,5.10
2023-01-13T15:06:45.526Z,5.10
2023-01-13T15:09:22.632Z,5.07
2023-01-13T15:11:48.888Z,5.01
2023-01-13T15:14:23.132Z,5.00
2023-01-13T15:16:49.453Z,4.92
2023-01-13T15:19:15.711Z,4.79
2023-01-13T15:21:41.995Z,4.92
2023-01-13T15:24:08.293Z,4.94
2023-01-13T15:26:35.012Z,4.97
2023-01-13T15:29:03.090Z,4.97
2023-01-13T15:31:29.491Z,4.97
2023-01-13T15:33:55.935Z,4.97
2023-01-13T15:36:24.922Z,4.85
2023-01-13T15:38:51.311Z,4.97
2023-01-13T15:41:17.607Z,4.95
2023-01-13T15:44:02.722Z,4.99
2023-01-13T15:46:37.817Z,4.99
2023-01-13T15:49:19.248Z,4.99
2023-01-13T15:51:45.487Z,5.00
2023-01-13T15:54:12.632Z,5.01
2023-01-13T15:56:39.299Z,5.04
2023-01-13T15:59:06.767Z,5.05
2023-01-13T16:01:33.169Z,5.05
2023-01-13T16:03:59.463Z,5.04
2023-01-13T16:06:32.411Z,5.06
2023-01-13T16:08:59.361Z,5.05
2023-01-13T16:11:25.674Z,5.03
2023-01-13T16:13:51.927Z,5.02
2023-01-13T16:16:20.952Z,5.00
2023-01-13T16:18:47.669Z,4.78
2023-01-13T16:21:14.569Z,4.58
2023-01-13T16:23:41.168Z,4.48
2023-01-13T16:26:14.105Z,4.41
2023-01-13T16:28:40.384Z,4.37
2023-01-13T16:31:17.648Z,4.36
2023-01-13T16:33:44.215Z,4.38
2023-01-13T16:36:13.485Z,4.36
2023-01-13T16:38:39.764Z,4.40
2023-01-13T16:41:07.244Z,4.40
2023-01-13T16:43:34.001Z,4.39
2023-01-13T16:46:00.271Z,4.42
2023-01-13T16:48:26.811Z,4.38
2023-01-13T16:50:53.170Z,4.43
2023-01-13T16:53:19.408Z,4.49
2023-01-13T16:55:45.677Z,4.51
2023-01-13T16:58:16.255Z,4.59
2023-01-13T17:00:42.867Z,4.65
2023-01-13T17:03:09.179Z,4.70
2023-01-13T17:05:39.330Z,4.76
2023-01-13T17:08:05.739Z,4.75
2023-01-13T17:10:32.003Z,4.84
2023-01-13T17:13:00.285Z,4.88
2023-01-13T17:15:30.910Z,4.91
2023-01-13T17:17:58.302Z,4.96
2023-01-13T17:20:24.607Z,4.90
2023-01-13T17:22:57.995Z,4.87
2023-01-13T17:25:24.680Z,4.90
2023-01-13T17:27:50.935Z,4.88
2023-01-13T17:30:17.287Z,4.89
2023-01-13T17:32:43.591Z,4.93
2023-01-13T17:35:09.994Z,4.88
2023-01-13T17:37:36.284Z,4.92
2023-01-13T17:40:02.585Z,4.93
2023-01-13T17:42:29.593Z,4.91
2023-01-13T17:44:56.072Z,5.00
2023-01-13T17:47:22.338Z,5.03
2023-01-13T17:49:48.620Z,5.01
2023-01-13T17:52:14.932Z,5.01
2023-01-13T17:54:43.009Z,5.05
2023-01-13T17:57:09.916Z,5.08
2023-01-13T17:59:36.195Z,5.07
2023-01-13T18:02:02.846Z,5.11
2023-01-13T18:04:30.766Z,5.06
2023-01-13T18:06:57.180Z,5.15
2023-01-13T18:09:23.541Z,4.99
2023-01-13T18:11:50.067Z,5.20
2023-01-13T18:14:16.823Z,5.16
2023-01-13T18:16:43.596Z,5.21
2023-01-13T18:19:29.145Z,5.26
2023-01-13T18:22:14.005Z,5.28
2023-01-13T18:24:58.889Z,5.31
2023-01-13T18:27:28.727Z,5.32
2023-01-13T18:29:56.115Z,5.27
2023-01-13T18:32:23.464Z,5.32
2023-01-13T18:34:53.906Z,5.30
2023-01-13T18:37:25.513Z,5.33
2023-01-13T18:39:51.804Z,5.35
2023-01-13T18:42:36.561Z,5.29
2023-01-13T18:45:03.151Z,5.35
2023-01-13T18:47:30.440Z,5.30
2023-01-13T18:49:57.129Z,5.23
2023-01-13T18:52:24.439Z,5.28
2023-01-13T18:54:50.805Z,5.27
2023-01-13T18:57:17.214Z,5.27
2023-01-13T18:59:43.515Z,5.27
2023-01-13T19:02:18.298Z,5.27
2023-01-13T19:04:44.725Z,5.26
2023-01-13T19:07:22.011Z,5.24
2023-01-13T19:09:49.986Z,5.28
2023-01-13T19:12:23.451Z,5.27
2023-01-13T19:14:49.740Z,5.27
2023-01-13T19:17:16.925Z,5.22
2023-01-13T19:19:47.243Z,5.12
2023-01-13T19:22:14.935Z,5.16
2023-01-13T19:24:44.046Z,4.99
2023-01-13T19:27:11.290Z,5.12
2023-01-13T19:29:37.656Z,5.13
2023-01-13T19:32:11.227Z,5.03
2023-01-13T19:34:37.667Z,5.07
2023-01-13T19:37:06.425Z,5.06
2023-01-13T19:39:33.112Z,5.04
2023-01-13T19:42:18.131Z,5.05
2023-01-13T19:45:03.060Z,5.03
2023-01-13T19:47:29.769Z,5.04
2023-01-13T19:49:56.098Z,5.04
2023-01-13T19:52:22.446Z,5.04
2023-01-13T19:54:48.944Z,5.04
2023-01-13T19:57:15.258Z,5.06
2023-01-13T19:59:42.142Z,5.05
2023-01-13T20:02:13.259Z,5.05
2023-01-13T20:04:39.589Z,5.05
2023-01-13T20:07:05.997Z,5.05
2023-01-13T20:09:32.645Z,4.99
2023-01-13T20:12:01.112Z,5.03
2023-01-13T20:14:27.374Z,5.02
2023-01-13T20:16:53.650Z,5.02
2023-01-13T20:19:20.029Z,5.01
2023-01-13T20:21:46.271Z,5.00
2023-01-13T20:24:15.401Z,4.97
2023-01-13T20:26:41.747Z,4.93
2023-01-13T20:29:07.993Z,4.93
2023-01-13T20:31:34.320Z,4.95
2023-01-13T20:34:00.669Z,4.92
2023-01-13T20:36:32.745Z,4.83
2023-01-13T20:38:59.766Z,4.98
2023-01-13T20:41:45.284Z,4.92
2023-01-13T20:44:11.986Z,5.00
2023-01-13T20:46:41.715Z,5.01
2023-01-13T20:49:10.354Z,5.03
2023-01-13T20:51:37.290Z,5.04
2023-01-13T20:54:03.936Z,5.04
2023-01-13T20:56:30.495Z,5.07
2023-01-13T20:58:56.912Z,5.11
2023-01-13T21:01:23.275Z,5.11
2023-01-13T21:03:49.733Z,5.07
2023-01-13T21:06:20.362Z,5.11
2023-01-13T21:08:47.385Z,5.13
2023-01-13T21:11:15.042Z,5.14
2023-01-13T21:13:59.937Z,5.11
2023-01-13T21:16:26.214Z,5.16
2023-01-13T21:19:07.504Z,5.18
2023-01-13T21:21:33.785Z,5.20
2023-01-13T21:24:00.047Z,5.23
2023-01-13T21:26:26.415Z,5.22
2023-01-13T21:28:55.550Z,5.19
2023-01-13T21:31:21.826Z,5.14
2023-01-13T21:33:52.359Z,5.12
2023-01-13T21:36:18.728Z,5.07
2023-01-13T21:38:45.041Z,5.06
2023-01-13T21:41:14.248Z,5.04
2023-01-13T21:43:59.444Z,5.03
2023-01-13T21:46:44.304Z,5.07
2023-01-13T21:49:10.654Z,5.06
2023-01-13T21:51:36.958Z,5.11
2023-01-13T21:54:03.253Z,5.09
2023-01-13T21:56:29.525Z,5.13
2023-01-13T21:58:58.524Z,5.12
2023-01-13T22:01:24.867Z,5.15
2023-01-13T22:04:09.673Z,5.16
2023-01-13T22:06:36.012Z,5.15
2023-01-13T22:09:03.776Z,5.17
2023-01-13T22:11:31.647Z,5.14
2023-01-13T22:14:08.733Z,5.13
2023-01-13T22:16:38.692Z,5.15
2023-01-13T22:19:06.358Z,5.13
2023-01-13T22:21:32.682Z,5.13
2023-01-13T22:23:59.259Z,5.12
2023-01-13T22:26:25.837Z,5.06
2023-01-13T22:28:52.150Z,5.07
2023-01-13T22:31:23.706Z,4.99
2023-01-13T22:33:56.279Z,4.95
2023-01-13T22:36:24.057Z,4.93
2023-01-13T22:38:55.236Z,4.90
2023-01-13T22:41:21.586Z,4.92
2023-01-13T22:43:47.901Z,4.93
2023-01-13T22:46:14.323Z,4.97
2023-01-13T22:48:40.756Z,4.95
2023-01-13T22:51:07.968Z,4.93
2023-01-13T22:53:34.732Z,4.88
2023-01-13T22:56:01.163Z,4.85
2023-01-13T22:58:27.442Z,4.87
2023-01-13T23:00:54.850Z,4.89
2023-01-13T23:03:21.659Z,4.89
2023-01-13T23:05:47.947Z,4.93
2023-01-13T23:08:14.463Z,4.92
2023-01-13T23:10:41.127Z,4.91
2023-01-13T23:13:08.576Z,4.88
2023-01-13T23:15:35.111Z,4.85
2023-01-13T23:18:02.666Z,4.79
2023-01-13T23:20:30.413Z,4.74
2023-01-13T23:22:59.991Z,4.73
2023-01-13T23:25:26.612Z,4.70
2023-01-13T23:27:53.221Z,4.67
2023-01-13T23:30:19.532Z,4.66
2023-01-13T23:32:45.784Z,4.66
2023-01-13T23:35:12.077Z,4.68
2023-01-13T23:37:38.327Z,4.68
2023-01-13T23:40:04.831Z,4.73
2023-01-13T23:42:31.081Z,4.71
2023-01-13T23:44:57.319Z,4.75
2023-01-13T23:47:23.627Z,4.83
2023-01-13T23:49:49.882Z,4.88
2023-01-13T23:52:16.332Z,4.90
2023-01-13T23:54:42.592Z,4.89
2023-01-13T23:57:08.858Z,4.90
2023-01-13T23:59:35.109Z,4.88
